Hamnavoe — VSTY7 — position and weather

sailwx.info

Track history (hours):
 
Tides and Currents Weather Stations Pressure Air Temp Water Temp Dewpoint Dewpoint Depression Visibility Wind Speed Wind Dir Waves Ship Positions

Hamnavoe

Operator: NorthLink Orkey & Shetland Ferries Ltd

Last reported at 2020-Jul-14 13:56 UTC. Time now 2020-Jul-14 14:11 UTC.
Position N 58°58' W 003°18'.

Length 112 m; draft 4.4 m.

Type: Ship. MMSI: 235449000.

Date/timePositionNaut miles runAvg speedWind from/ knotsBaromVisibWave heightAir tempDewpointWater temp
2020-Jul-14 13:56N 58°58' W 003°18'1 1.5
2020-Jul-14 13:30N 58°57' W 003°17'22 3.4
2020-Jul-14 06:59N 58°37' W 003°32'714.3
2020-Jul-14 06:30N 58°43' W 003°30'1610.3
2020-Jul-14 04:58N 58°58' W 003°18'0 0.0
2020-Jul-14 03:28N 58°58' W 003°18'0 0.0
2020-Jul-14 02:28N 58°58' W 003°18'0 0.0
2020-Jul-14 01:28N 58°58' W 003°18'0 0.0
2020-Jul-14 00:28N 58°58' W 003°18'19 3.0
2020-Jul-13 18:00N 58°40' W 003°31'2 2.2
2020-Jul-13 16:59N 58°38' W 003°31'21 6.1
2020-Jul-13 13:30N 58°57' W 003°18'611.5
2020-Jul-13 13:00N 58°54' W 003°27'10 1.9
2020-Jul-13 08:00N 58°45' W 003°30'15 2.9
2020-Jul-13 02:58N 58°58' W 003°18'0 0.0
2020-Jul-12 22:28N 58°58' W 003°18'0 0.0
2020-Jul-12 21:58N 58°58' W 003°18'2 0.8
2020-Jul-12 19:00N 58°57' W 003°22'815.7
2020-Jul-12 18:30N 58°50' W 003°28'10 2.4
2020-Jul-12 14:30N 58°58' W 003°18'0 0.0
2020-Jul-12 13:30N 58°58' W 003°18'0 0.0
2020-Jul-12 12:30N 58°58' W 003°18'1912.5
2020-Jul-12 11:00N 58°40' W 003°31'19 5.3
2020-Jul-12 07:30N 58°58' W 003°18'0 0.0
2020-Jul-12 05:00N 58°58' W 003°18'0 0.0
2020-Jul-12 01:30N 58°58' W 003°18'0 0.0
2020-Jul-12 00:00N 58°58' W 003°18'0 0.0
2020-Jul-11 22:30N 58°58' W 003°18'0 0.0
2020-Jul-11 21:00N 58°58' W 003°18'3 1.4
2020-Jul-11 19:00N 58°57' W 003°23'3 0.8
2020-Jul-11 15:30N 58°58' W 003°18'1 0.4
2020-Jul-11 13:30N 58°57' W 003°18'17 6.9
2020-Jul-11 11:00N 58°41' W 003°31'17 8.6
2020-Jul-11 09:00N 58°57' W 003°18'1414.0
2020-Jul-11 08:00N 58°44' W 003°30'15 3.3
2020-Jul-11 03:28N 58°58' W 003°18'0 0.0
2020-Jul-11 02:58N 58°58' W 003°18'0 0.0
2020-Jul-11 02:28N 58°58' W 003°18'0 0.0
2020-Jul-11 01:52N 58°58' W 003°18'0 0.0
2020-Jul-11 00:58N 58°58' W 003°18'0 0.0
2020-Jul-10 22:28N 58°58' W 003°18'0 0.0
2020-Jul-10 19:30N 58°58' W 003°18'4 8.3
2020-Jul-10 19:01N 58°56' W 003°25'3 1.0
2020-Jul-10 16:00N 58°53' W 003°27'7 6.8
2020-Jul-10 15:01N 58°58' W 003°18'1 0.8
2020-Jul-10 13:30N 58°57' W 003°19'2114.2
2020-Jul-10 12:00N 58°37' W 003°32'5 4.7
2020-Jul-10 11:00N 58°41' W 003°31'11 4.4
2020-Jul-10 08:30N 58°52' W 003°28'10 4.9
2020-Jul-10 06:30N 58°42' W 003°30'816.0
2020-Jul-10 06:00N 58°50' W 003°28'714.6
2020-Jul-10 05:30N 58°57' W 003°22'2 0.8
2020-Jul-10 02:26N 58°58' W 003°18'0 0.0
2020-Jul-10 01:56N 58°58' W 003°18'0 0.0
2020-Jul-10 00:56N 58°58' W 003°18'0 0.0
2020-Jul-10 00:26N 58°58' W 003°18'0 0.0
2020-Jul-09 21:56N 58°58' W 003°18'0 0.0
2020-Jul-09 19:59N 58°58' W 003°18'7 1.7
2020-Jul-09 16:00N 58°53' W 003°27'7 6.2
2020-Jul-09 14:55N 58°58' W 003°18'0 0.0
2020-Jul-09 13:55N 58°58' W 003°18'1410.0
2020-Jul-09 12:30N 58°45' W 003°30'815.4
2020-Jul-09 12:00N 58°37' W 003°32'1 1.6
2020-Jul-09 11:29N 58°37' W 003°32'1313.2
2020-Jul-09 10:30N 58°49' W 003°29'9 6.0
2020-Jul-09 09:00N 58°57' W 003°18'713.4
2020-Jul-09 08:30N 58°52' W 003°28'1610.1
2020-Jul-09 06:58N 58°37' W 003°32'1314.2
2020-Jul-09 06:00N 58°50' W 003°28'10 3.1
2020-Jul-09 02:56N 58°58' W 003°18'0 0.0
2020-Jul-08 21:59N 58°58' W 003°18'0 0.0
2020-Jul-08 20:29N 58°58' W 003°18'22 7.5
2020-Jul-08 17:30N 58°37' W 003°32'1 2.1
2020-Jul-08 17:00N 58°38' W 003°32'2114.2
2020-Jul-08 15:30N 58°58' W 003°18'0 0.1
2020-Jul-08 14:00N 58°58' W 003°18'1 1.9
2020-Jul-08 13:30N 58°57' W 003°17'612.8
2020-Jul-08 13:00N 58°53' W 003°27'714.9
2020-Jul-08 12:30N 58°46' W 003°29'4 2.6
2020-Jul-08 11:00N 58°42' W 003°31'16 2.8
2020-Jul-08 05:30N 58°57' W 003°21'2 0.9
2020-Jul-08 02:59N 58°58' W 003°18'0 0.0
2020-Jul-07 22:59N 58°58' W 003°18'0 0.0
2020-Jul-07 21:59N 58°58' W 003°18'0 0.0
2020-Jul-07 20:29N 58°58' W 003°18'10 5.1
2020-Jul-07 18:30N 58°49' W 003°28'4 1.5
2020-Jul-07 16:00N 58°53' W 003°27'7 6.4
2020-Jul-07 14:55N 58°58' W 003°18'0 0.0
2020-Jul-07 13:55N 58°58' W 003°18'8 8.5
2020-Jul-07 13:00N 58°52' W 003°28'1610.4
2020-Jul-07 11:30N 58°37' W 003°32'5 9.9
2020-Jul-07 11:00N 58°41' W 003°30'5 1.4
2020-Jul-07 07:30N 58°37' W 003°32'2110.4
2020-Jul-07 05:30N 58°57' W 003°21'2 3.8
2020-Jul-07 04:58N 58°58' W 003°18'0 0.0
2020-Jul-07 03:28N 58°58' W 003°18'0 0.0
2020-Jul-07 02:58N 58°58' W 003°18'0 0.0
2020-Jul-06 22:28N 58°58' W 003°18'4 1.0
2020-Jul-06 19:00N 58°56' W 003°24'714.5
2020-Jul-06 18:31N 58°49' W 003°28'1312.8
2020-Jul-06 17:30N 58°37' W 003°32'1 1.3
2020-Jul-06 17:00N 58°37' W 003°32'1 0.1
2020-Jul-06 12:00N 58°38' W 003°31'4 4.4
2020-Jul-06 11:00N 58°42' W 003°30'1514.9
2020-Jul-06 10:00N 58°57' W 003°22'3 5.3
2020-Jul-06 09:30N 58°58' W 003°18'8 7.5
2020-Jul-06 08:30N 58°52' W 003°28'714.0
2020-Jul-06 08:00N 58°45' W 003°29'14 3.9
2020-Jul-06 04:29N 58°58' W 003°18'0 0.0
2020-Jul-06 02:56N 58°58' W 003°18'0 0.0
2020-Jul-06 02:29N 58°58' W 003°18'0 0.0
2020-Jul-06 01:29N 58°58' W 003°18'0 0.0
2020-Jul-05 21:59N 58°58' W 003°18'0 0.0
2020-Jul-05 19:59N 58°58' W 003°18'6 1.4
2020-Jul-05 16:00N 58°54' W 003°26'611.2
2020-Jul-05 15:30N 58°58' W 003°18'0 0.1
2020-Jul-05 12:30N 58°58' W 003°18'0 0.0
2020-Jul-05 05:29N 58°58' W 003°18'0 0.0
2020-Jul-05 03:59N 58°58' W 003°18'0 0.0
2020-Jul-05 02:59N 58°58' W 003°18'0 0.0
2020-Jul-05 01:56N 58°58' W 003°18'0 0.0
2020-Jul-04 22:29N 58°58' W 003°18'0 0.0
2020-Jul-04 19:56N 58°58' W 003°18'0 0.0
2020-Jul-04 19:29N 58°58' W 003°18'9 9.6
2020-Jul-04 18:30N 58°50' W 003°29'  
Track history (hours):
 
Tides and Currents Weather Stations Pressure Air Temp Water Temp Dewpoint Dewpoint Depression Visibility Wind Speed Wind Dir Waves Ship Positions

Hamnavoe

Operator: NorthLink Orkey & Shetland Ferries Ltd

Last reported at 2020-Jul-14 13:56 UTC. Time now 2020-Jul-14 14:11 UTC.
Position N 58°58' W 003°18'.

Length 112 m; draft 4.4 m.

Type: Ship. MMSI: 235449000.

Date/timePositionNaut miles runAvg speedWind from/ knotsBaromVisibWave heightAir tempDewpointWater temp
2020-Jul-14 13:56N 58°58' W 003°18'1 1.5
2020-Jul-14 13:30N 58°57' W 003°17'22 3.4
2020-Jul-14 06:59N 58°37' W 003°32'714.3
2020-Jul-14 06:30N 58°43' W 003°30'1610.3
2020-Jul-14 04:58N 58°58' W 003°18'0 0.0
2020-Jul-14 03:28N 58°58' W 003°18'0 0.0
2020-Jul-14 02:28N 58°58' W 003°18'0 0.0
2020-Jul-14 01:28N 58°58' W 003°18'0 0.0
2020-Jul-14 00:28N 58°58' W 003°18'19 3.0
2020-Jul-13 18:00N 58°40' W 003°31'2 2.2
2020-Jul-13 16:59N 58°38' W 003°31'21 6.1
2020-Jul-13 13:30N 58°57' W 003°18'611.5
2020-Jul-13 13:00N 58°54' W 003°27'10 1.9
2020-Jul-13 08:00N 58°45' W 003°30'15 2.9
2020-Jul-13 02:58N 58°58' W 003°18'0 0.0
2020-Jul-12 22:28N 58°58' W 003°18'0 0.0
2020-Jul-12 21:58N 58°58' W 003°18'2 0.8
2020-Jul-12 19:00N 58°57' W 003°22'815.7
2020-Jul-12 18:30N 58°50' W 003°28'10 2.4
2020-Jul-12 14:30N 58°58' W 003°18'0 0.0
2020-Jul-12 13:30N 58°58' W 003°18'0 0.0
2020-Jul-12 12:30N 58°58' W 003°18'1912.5
2020-Jul-12 11:00N 58°40' W 003°31'19 5.3
2020-Jul-12 07:30N 58°58' W 003°18'0 0.0
2020-Jul-12 05:00N 58°58' W 003°18'0 0.0
2020-Jul-12 01:30N 58°58' W 003°18'0 0.0
2020-Jul-12 00:00N 58°58' W 003°18'0 0.0
2020-Jul-11 22:30N 58°58' W 003°18'0 0.0
2020-Jul-11 21:00N 58°58' W 003°18'3 1.4
2020-Jul-11 19:00N 58°57' W 003°23'3 0.8
2020-Jul-11 15:30N 58°58' W 003°18'1 0.4
2020-Jul-11 13:30N 58°57' W 003°18'17 6.9
2020-Jul-11 11:00N 58°41' W 003°31'17 8.6
2020-Jul-11 09:00N 58°57' W 003°18'1414.0
2020-Jul-11 08:00N 58°44' W 003°30'15 3.3
2020-Jul-11 03:28N 58°58' W 003°18'0 0.0
2020-Jul-11 02:58N 58°58' W 003°18'0 0.0
2020-Jul-11 02:28N 58°58' W 003°18'0 0.0
2020-Jul-11 01:52N 58°58' W 003°18'0 0.0
2020-Jul-11 00:58N 58°58' W 003°18'0 0.0
2020-Jul-10 22:28N 58°58' W 003°18'0 0.0
2020-Jul-10 19:30N 58°58' W 003°18'4 8.3
2020-Jul-10 19:01N 58°56' W 003°25'3 1.0
2020-Jul-10 16:00N 58°53' W 003°27'7 6.8
2020-Jul-10 15:01N 58°58' W 003°18'1 0.8
2020-Jul-10 13:30N 58°57' W 003°19'2114.2
2020-Jul-10 12:00N 58°37' W 003°32'5 4.7
2020-Jul-10 11:00N 58°41' W 003°31'11 4.4
2020-Jul-10 08:30N 58°52' W 003°28'10 4.9
2020-Jul-10 06:30N 58°42' W 003°30'816.0
2020-Jul-10 06:00N 58°50' W 003°28'714.6
2020-Jul-10 05:30N 58°57' W 003°22'2 0.8
2020-Jul-10 02:26N 58°58' W 003°18'0 0.0
2020-Jul-10 01:56N 58°58' W 003°18'0 0.0
2020-Jul-10 00:56N 58°58' W 003°18'0 0.0
2020-Jul-10 00:26N 58°58' W 003°18'0 0.0
2020-Jul-09 21:56N 58°58' W 003°18'0 0.0
2020-Jul-09 19:59N 58°58' W 003°18'7 1.7
2020-Jul-09 16:00N 58°53' W 003°27'7 6.2
2020-Jul-09 14:55N 58°58' W 003°18'0 0.0
2020-Jul-09 13:55N 58°58' W 003°18'1410.0
2020-Jul-09 12:30N 58°45' W 003°30'815.4
2020-Jul-09 12:00N 58°37' W 003°32'1 1.6
2020-Jul-09 11:29N 58°37' W 003°32'1313.2
2020-Jul-09 10:30N 58°49' W 003°29'9 6.0
2020-Jul-09 09:00N 58°57' W 003°18'713.4
2020-Jul-09 08:30N 58°52' W 003°28'1610.1
2020-Jul-09 06:58N 58°37' W 003°32'1314.2
2020-Jul-09 06:00N 58°50' W 003°28'10 3.1
2020-Jul-09 02:56N 58°58' W 003°18'0 0.0
2020-Jul-08 21:59N 58°58' W 003°18'0 0.0
2020-Jul-08 20:29N 58°58' W 003°18'22 7.5
2020-Jul-08 17:30N 58°37' W 003°32'1 2.1
2020-Jul-08 17:00N 58°38' W 003°32'2114.2
2020-Jul-08 15:30N 58°58' W 003°18'0 0.1
2020-Jul-08 14:00N 58°58' W 003°18'1 1.9
2020-Jul-08 13:30N 58°57' W 003°17'612.8
2020-Jul-08 13:00N 58°53' W 003°27'714.9
2020-Jul-08 12:30N 58°46' W 003°29'4 2.6
2020-Jul-08 11:00N 58°42' W 003°31'16 2.8
2020-Jul-08 05:30N 58°57' W 003°21'2 0.9
2020-Jul-08 02:59N 58°58' W 003°18'0 0.0
2020-Jul-07 22:59N 58°58' W 003°18'0 0.0
2020-Jul-07 21:59N 58°58' W 003°18'0 0.0
2020-Jul-07 20:29N 58°58' W 003°18'10 5.1
2020-Jul-07 18:30N 58°49' W 003°28'4 1.5
2020-Jul-07 16:00N 58°53' W 003°27'7 6.4
2020-Jul-07 14:55N 58°58' W 003°18'0 0.0
2020-Jul-07 13:55N 58°58' W 003°18'8 8.5
2020-Jul-07 13:00N 58°52' W 003°28'1610.4
2020-Jul-07 11:30N 58°37' W 003°32'5 9.9
2020-Jul-07 11:00N 58°41' W 003°30'5 1.4
2020-Jul-07 07:30N 58°37' W 003°32'2110.4
2020-Jul-07 05:30N 58°57' W 003°21'2 3.8
2020-Jul-07 04:58N 58°58' W 003°18'0 0.0
2020-Jul-07 03:28N 58°58' W 003°18'0 0.0
2020-Jul-07 02:58N 58°58' W 003°18'0 0.0
2020-Jul-06 22:28N 58°58' W 003°18'4 1.0
2020-Jul-06 19:00N 58°56' W 003°24'714.5
2020-Jul-06 18:31N 58°49' W 003°28'1312.8
2020-Jul-06 17:30N 58°37' W 003°32'1 1.3
2020-Jul-06 17:00N 58°37' W 003°32'1 0.1
2020-Jul-06 12:00N 58°38' W 003°31'4 4.4
2020-Jul-06 11:00N 58°42' W 003°30'1514.9
2020-Jul-06 10:00N 58°57' W 003°22'3 5.3
2020-Jul-06 09:30N 58°58' W 003°18'8 7.5
2020-Jul-06 08:30N 58°52' W 003°28'714.0
2020-Jul-06 08:00N 58°45' W 003°29'14 3.9
2020-Jul-06 04:29N 58°58' W 003°18'0 0.0
2020-Jul-06 02:56N 58°58' W 003°18'0 0.0
2020-Jul-06 02:29N 58°58' W 003°18'0 0.0
2020-Jul-06 01:29N 58°58' W 003°18'0 0.0
2020-Jul-05 21:59N 58°58' W 003°18'0 0.0
2020-Jul-05 19:59N 58°58' W 003°18'6 1.4
2020-Jul-05 16:00N 58°54' W 003°26'611.2
2020-Jul-05 15:30N 58°58' W 003°18'0 0.1
2020-Jul-05 12:30N 58°58' W 003°18'0 0.0
2020-Jul-05 05:29N 58°58' W 003°18'0 0.0
2020-Jul-05 03:59N 58°58' W 003°18'0 0.0
2020-Jul-05 02:59N 58°58' W 003°18'0 0.0
2020-Jul-05 01:56N 58°58' W 003°18'0 0.0
2020-Jul-04 22:29N 58°58' W 003°18'0 0.0
2020-Jul-04 19:56N 58°58' W 003°18'0 0.0
2020-Jul-04 19:29N 58°58' W 003°18'9 9.6
2020-Jul-04 18:30N 58°50' W 003°29'  

Dump ship's entire track history